Sylvan Lake, Michigan
Current Conditions -  °F | °C
As of 12:53 PM on Monday 24 Nov 2014 (Local Time) from KPTK Reporting Station
Broken Clouds Broken Clouds  
Wind Chill: 56°   Ceiling: 2800
Heat Index: 56°   Visibility: 10mi
Dew Point: 48°   Wind: 21mph
Humidity: 75%   Direction: 200°SSW
Pressure: 29.08"   Gusts: 31mph
Location:  42.6112°N, 83.3377°W
Report Text: KPTK 241753Z 20018G27KT 10SM FEW009 SCT023 BKN028 13/09 A2908 RMK AO2 PK WND 20032/1729 RAE36 SLP848 P0001 60002 T01330089 10133 20117 58005
Loading
Personal Weather Stations






























Interactive Weather Map New forecast layout! Learn more

10-Day Weather Forecast

Advertisements
Track Severe Weather on mobile